sensor_id;sensor_type;location;lat;lon;timestamp;P1;durP1;ratioP1;P2;durP2;ratioP2
45650;SDS011;31365;48.858;8.530;2023-05-27T00:00:43;6.22;;;5.00;;
45650;SDS011;31365;48.858;8.530;2023-05-27T00:03:13;6.23;;;4.43;;
45650;SDS011;31365;48.858;8.530;2023-05-27T00:05:41;8.02;;;4.78;;
45650;SDS011;31365;48.858;8.530;2023-05-27T00:08:10;7.88;;;4.80;;
45650;SDS011;31365;48.858;8.530;2023-05-27T00:10:38;6.63;;;4.55;;
45650;SDS011;31365;48.858;8.530;2023-05-27T00:13:07;6.18;;;4.60;;
45650;SDS011;31365;48.858;8.530;2023-05-27T00:15:35;7.70;;;5.15;;
45650;SDS011;31365;48.858;8.530;2023-05-27T00:18:07;9.50;;;5.07;;
45650;SDS011;31365;48.858;8.530;2023-05-27T00:20:35;6.38;;;4.53;;
45650;SDS011;31365;48.858;8.530;2023-05-27T00:23:03;6.27;;;4.50;;
45650;SDS011;31365;48.858;8.530;2023-05-27T00:25:32;6.68;;;4.25;;
45650;SDS011;31365;48.858;8.530;2023-05-27T00:28:01;7.72;;;4.15;;
45650;SDS011;31365;48.858;8.530;2023-05-27T00:30:29;7.13;;;4.67;;
45650;SDS011;31365;48.858;8.530;2023-05-27T00:32:58;8.40;;;4.30;;
45650;SDS011;31365;48.858;8.530;2023-05-27T00:35:28;8.70;;;5.40;;
45650;SDS011;31365;48.858;8.530;2023-05-27T00:37:56;10.23;;;5.80;;
45650;SDS011;31365;48.858;8.530;2023-05-27T00:40:26;7.78;;;4.57;;
45650;SDS011;31365;48.858;8.530;2023-05-27T00:42:57;7.93;;;5.63;;
45650;SDS011;31365;48.858;8.530;2023-05-27T00:45:26;8.63;;;6.00;;
45650;SDS011;31365;48.858;8.530;2023-05-27T00:47:54;9.73;;;5.53;;
45650;SDS011;31365;48.858;8.530;2023-05-27T00:50:22;9.52;;;5.82;;
45650;SDS011;31365;48.858;8.530;2023-05-27T00:52:52;8.60;;;5.82;;
45650;SDS011;31365;48.858;8.530;2023-05-27T00:55:22;8.55;;;5.30;;
45650;SDS011;31365;48.858;8.530;2023-05-27T00:57:52;8.93;;;5.15;;
45650;SDS011;31365;48.858;8.530;2023-05-27T03:18:51;10.30;;;4.67;;
45650;SDS011;31365;48.858;8.530;2023-05-27T03:21:19;7.68;;;4.40;;
45650;SDS011;31365;48.858;8.530;2023-05-27T03:23:48;9.13;;;4.45;;
45650;SDS011;31365;48.858;8.530;2023-05-27T03:26:17;6.50;;;4.30;;
45650;SDS011;31365;48.858;8.530;2023-05-27T03:28:45;7.70;;;4.40;;
45650;SDS011;31365;48.858;8.530;2023-05-27T03:31:15;9.15;;;4.68;;
45650;SDS011;31365;48.858;8.530;2023-05-27T03:34:07;7.97;;;4.63;;
45650;SDS011;31365;48.858;8.530;2023-05-27T03:36:38;7.82;;;4.25;;
45650;SDS011;31365;48.858;8.530;2023-05-27T03:39:09;7.35;;;4.30;;
45650;SDS011;31365;48.858;8.530;2023-05-27T03:41:41;7.05;;;4.10;;
45650;SDS011;31365;48.858;8.530;2023-05-27T03:44:12;7.85;;;4.28;;
45650;SDS011;31365;48.858;8.530;2023-05-27T03:46:40;7.20;;;4.47;;
45650;SDS011;31365;48.858;8.530;2023-05-27T03:49:09;10.63;;;4.40;;
45650;SDS011;31365;48.858;8.530;2023-05-27T03:51:39;7.57;;;4.57;;
45650;SDS011;31365;48.858;8.530;2023-05-27T03:54:07;8.98;;;4.30;;
45650;SDS011;31365;48.858;8.530;2023-05-27T03:56:36;8.35;;;4.47;;
45650;SDS011;31365;48.858;8.530;2023-05-27T03:59:04;8.18;;;3.72;;
45650;SDS011;31365;48.858;8.530;2023-05-27T04:01:32;5.97;;;3.92;;
45650;SDS011;31365;48.858;8.530;2023-05-27T04:04:01;8.30;;;4.50;;
45650;SDS011;31365;48.858;8.530;2023-05-27T04:06:31;6.97;;;3.95;;
45650;SDS011;31365;48.858;8.530;2023-05-27T04:09:00;8.85;;;4.40;;
45650;SDS011;31365;48.858;8.530;2023-05-27T04:11:29;5.68;;;3.72;;
45650;SDS011;31365;48.858;8.530;2023-05-27T04:13:58;7.60;;;4.57;;
45650;SDS011;31365;48.858;8.530;2023-05-27T04:16:26;7.70;;;4.55;;
45650;SDS011;31365;48.858;8.530;2023-05-27T04:18:57;8.25;;;4.53;;
45650;SDS011;31365;48.858;8.530;2023-05-27T04:21:25;7.65;;;4.50;;
45650;SDS011;31365;48.858;8.530;2023-05-27T04:23:57;7.00;;;4.40;;
45650;SDS011;31365;48.858;8.530;2023-05-27T04:26:25;7.78;;;4.30;;
45650;SDS011;31365;48.858;8.530;2023-05-27T04:28:53;8.05;;;4.18;;
45650;SDS011;31365;48.858;8.530;2023-05-27T04:31:27;8.98;;;4.40;;
45650;SDS011;31365;48.858;8.530;2023-05-27T04:34:04;7.15;;;4.15;;
45650;SDS011;31365;48.858;8.530;2023-05-27T04:36:34;7.20;;;4.10;;
45650;SDS011;31365;48.858;8.530;2023-05-27T04:39:08;6.60;;;4.30;;
45650;SDS011;31365;48.858;8.530;2023-05-27T04:41:41;7.97;;;4.03;;
45650;SDS011;31365;48.858;8.530;2023-05-27T04:44:11;6.28;;;3.78;;
45650;SDS011;31365;48.858;8.530;2023-05-27T04:46:43;7.10;;;4.07;;
45650;SDS011;31365;48.858;8.530;2023-05-27T04:49:11;6.78;;;4.20;;
45650;SDS011;31365;48.858;8.530;2023-05-27T04:51:40;5.32;;;3.50;;
45650;SDS011;31365;48.858;8.530;2023-05-27T04:54:10;7.75;;;4.07;;
45650;SDS011;31365;48.858;8.530;2023-05-27T04:56:38;7.93;;;4.37;;
45650;SDS011;31365;48.858;8.530;2023-05-27T04:59:13;9.57;;;4.28;;
45650;SDS011;31365;48.858;8.530;2023-05-27T05:01:44;8.95;;;4.28;;
45650;SDS011;31365;48.858;8.530;2023-05-27T05:04:54;9.70;;;4.60;;
45650;SDS011;31365;48.858;8.530;2023-05-27T05:07:23;6.05;;;3.78;;
45650;SDS011;31365;48.858;8.530;2023-05-27T05:09:53;8.83;;;4.10;;
45650;SDS011;31365;48.858;8.530;2023-05-27T05:12:28;6.90;;;3.80;;
45650;SDS011;31365;48.858;8.530;2023-05-27T05:14:57;7.37;;;3.67;;
45650;SDS011;31365;48.858;8.530;2023-05-27T05:17:26;8.77;;;4.20;;
45650;SDS011;31365;48.858;8.530;2023-05-27T05:19:54;6.33;;;3.47;;
45650;SDS011;31365;48.858;8.530;2023-05-27T05:22:24;6.57;;;3.60;;
45650;SDS011;31365;48.858;8.530;2023-05-27T05:24:56;7.73;;;3.90;;
45650;SDS011;31365;48.858;8.530;2023-05-27T05:27:30;7.70;;;3.70;;
45650;SDS011;31365;48.858;8.530;2023-05-27T05:29:59;5.77;;;4.03;;
45650;SDS011;31365;48.858;8.530;2023-05-27T05:32:28;7.27;;;3.90;;
45650;SDS011;31365;48.858;8.530;2023-05-27T05:34:56;10.67;;;3.80;;
45650;SDS011;31365;48.858;8.530;2023-05-27T05:37:25;9.07;;;4.10;;
45650;SDS011;31365;48.858;8.530;2023-05-27T05:39:54;6.33;;;3.53;;
45650;SDS011;31365;48.858;8.530;2023-05-27T05:42:24;7.47;;;3.87;;
45650;SDS011;31365;48.858;8.530;2023-05-27T05:44:54;6.40;;;3.90;;
45650;SDS011;31365;48.858;8.530;2023-05-27T05:47:22;6.97;;;4.20;;
45650;SDS011;31365;48.858;8.530;2023-05-27T05:50:01;6.90;;;3.40;;
45650;SDS011;31365;48.858;8.530;2023-05-27T05:52:30;7.77;;;3.67;;
45650;SDS011;31365;48.858;8.530;2023-05-27T05:55:00;10.50;;;4.80;;
45650;SDS011;31365;48.858;8.530;2023-05-27T06:00:47;11.00;;;4.20;;
45650;SDS011;31365;48.858;8.530;2023-05-27T06:03:32;10.20;;;4.23;;
45650;SDS011;31365;48.858;8.530;2023-05-27T06:06:01;9.90;;;3.97;;
45650;SDS011;31365;48.858;8.530;2023-05-27T06:08:31;4.47;;;3.60;;
45650;SDS011;31365;48.858;8.530;2023-05-27T06:11:10;7.03;;;3.87;;
45650;SDS011;31365;48.858;8.530;2023-05-27T06:13:41;7.47;;;3.70;;
45650;SDS011;31365;48.858;8.530;2023-05-27T06:16:11;5.87;;;3.37;;
45650;SDS011;31365;48.858;8.530;2023-05-27T06:18:40;10.13;;;3.83;;
45650;SDS011;31365;48.858;8.530;2023-05-27T06:21:13;10.70;;;4.63;;
45650;SDS011;31365;48.858;8.530;2023-05-27T06:24:08;11.37;;;4.30;;
45650;SDS011;31365;48.858;8.530;2023-05-27T06:26:42;10.27;;;4.23;;
45650;SDS011;31365;48.858;8.530;2023-05-27T06:29:11;7.80;;;3.80;;
45650;SDS011;31365;48.858;8.530;2023-05-27T06:31:39;7.10;;;3.87;;
45650;SDS011;31365;48.858;8.530;2023-05-27T06:34:08;10.47;;;3.50;;
45650;SDS011;31365;48.858;8.530;2023-05-27T06:36:36;12.43;;;4.03;;
45650;SDS011;31365;48.858;8.530;2023-05-27T06:39:04;10.07;;;3.77;;
45650;SDS011;31365;48.858;8.530;2023-05-27T06:41:34;7.47;;;4.00;;
45650;SDS011;31365;48.858;8.530;2023-05-27T06:44:30;13.07;;;4.57;;
45650;SDS011;31365;48.858;8.530;2023-05-27T06:47:03;8.30;;;3.40;;
45650;SDS011;31365;48.858;8.530;2023-05-27T06:49:32;10.87;;;4.27;;
45650;SDS011;31365;48.858;8.530;2023-05-27T06:52:03;11.33;;;3.83;;
45650;SDS011;31365;48.858;8.530;2023-05-27T06:54:47;9.98;;;4.13;;
45650;SDS011;31365;48.858;8.530;2023-05-27T06:57:51;10.20;;;3.67;;
45650;SDS011;31365;48.858;8.530;2023-05-27T07:00:27;10.77;;;4.13;;
45650;SDS011;31365;48.858;8.530;2023-05-27T07:03:12;9.53;;;4.07;;
45650;SDS011;31365;48.858;8.530;2023-05-27T07:05:40;8.73;;;3.47;;
45650;SDS011;31365;48.858;8.530;2023-05-27T07:08:09;11.48;;;4.65;;
45650;SDS011;31365;48.858;8.530;2023-05-27T07:10:38;9.57;;;4.30;;
45650;SDS011;31365;48.858;8.530;2023-05-27T07:13:06;7.83;;;3.87;;
45650;SDS011;31365;48.858;8.530;2023-05-27T07:15:43;9.83;;;4.23;;
45650;SDS011;31365;48.858;8.530;2023-05-27T07:18:12;12.07;;;4.05;;
45650;SDS011;31365;48.858;8.530;2023-05-27T07:20:42;9.15;;;3.90;;
45650;SDS011;31365;48.858;8.530;2023-05-27T07:23:12;10.50;;;4.03;;
45650;SDS011;31365;48.858;8.530;2023-05-27T07:25:45;11.43;;;4.55;;
45650;SDS011;31365;48.858;8.530;2023-05-27T07:28:13;8.05;;;3.83;;
45650;SDS011;31365;48.858;8.530;2023-05-27T07:30:48;9.23;;;4.60;;
45650;SDS011;31365;48.858;8.530;2023-05-27T07:33:16;8.50;;;3.67;;
45650;SDS011;31365;48.858;8.530;2023-05-27T07:35:45;8.98;;;4.00;;
45650;SDS011;31365;48.858;8.530;2023-05-27T07:38:13;10.23;;;4.47;;
45650;SDS011;31365;48.858;8.530;2023-05-27T07:40:42;11.02;;;4.90;;
45650;SDS011;31365;48.858;8.530;2023-05-27T07:43:10;11.50;;;3.80;;
45650;SDS011;31365;48.858;8.530;2023-05-27T07:45:38;9.30;;;3.70;;
45650;SDS011;31365;48.858;8.530;2023-05-27T07:48:08;9.48;;;4.50;;
45650;SDS011;31365;48.858;8.530;2023-05-27T07:50:36;7.47;;;4.13;;
45650;SDS011;31365;48.858;8.530;2023-05-27T07:53:13;11.13;;;4.22;;
45650;SDS011;31365;48.858;8.530;2023-05-27T07:55:42;9.30;;;4.13;;
45650;SDS011;31365;48.858;8.530;2023-05-27T07:58:10;10.07;;;4.97;;
45650;SDS011;31365;48.858;8.530;2023-05-27T08:00:50;10.68;;;4.45;;
45650;SDS011;31365;48.858;8.530;2023-05-27T08:03:21;9.65;;;4.53;;
45650;SDS011;31365;48.858;8.530;2023-05-27T08:06:06;9.50;;;4.70;;
45650;SDS011;31365;48.858;8.530;2023-05-27T08:08:57;8.18;;;4.20;;
45650;SDS011;31365;48.858;8.530;2023-05-27T08:11:34;7.30;;;3.47;;
45650;SDS011;31365;48.858;8.530;2023-05-27T08:14:21;9.48;;;3.70;;
45650;SDS011;31365;48.858;8.530;2023-05-27T08:17:26;10.45;;;4.32;;
45650;SDS011;31365;48.858;8.530;2023-05-27T08:20:09;11.25;;;5.30;;
45650;SDS011;31365;48.858;8.530;2023-05-27T08:22:53;10.85;;;4.55;;
45650;SDS011;31365;48.858;8.530;2023-05-27T08:25:49;11.55;;;3.67;;
45650;SDS011;31365;48.858;8.530;2023-05-27T08:28:50;9.77;;;3.72;;
45650;SDS011;31365;48.858;8.530;2023-05-27T08:31:45;7.18;;;3.45;;
45650;SDS011;31365;48.858;8.530;2023-05-27T08:34:14;9.05;;;4.13;;
45650;SDS011;31365;48.858;8.530;2023-05-27T08:36:44;9.07;;;4.47;;
45650;SDS011;31365;48.858;8.530;2023-05-27T08:39:12;11.70;;;4.13;;
45650;SDS011;31365;48.858;8.530;2023-05-27T08:41:48;9.80;;;3.88;;
45650;SDS011;31365;48.858;8.530;2023-05-27T08:44:17;7.80;;;3.97;;
45650;SDS011;31365;48.858;8.530;2023-05-27T08:46:57;7.07;;;3.70;;
45650;SDS011;31365;48.858;8.530;2023-05-27T08:49:25;8.30;;;4.20;;
45650;SDS011;31365;48.858;8.530;2023-05-27T08:51:55;7.47;;;3.88;;
45650;SDS011;31365;48.858;8.530;2023-05-27T08:54:28;13.20;;;4.40;;
45650;SDS011;31365;48.858;8.530;2023-05-27T08:57:00;7.15;;;4.10;;
45650;SDS011;31365;48.858;8.530;2023-05-27T08:59:34;8.52;;;4.15;;
45650;SDS011;31365;48.858;8.530;2023-05-27T09:02:03;8.00;;;4.15;;
45650;SDS011;31365;48.858;8.530;2023-05-27T09:09:32;7.00;;;4.28;;
45650;SDS011;31365;48.858;8.530;2023-05-27T09:12:01;10.23;;;4.65;;
45650;SDS011;31365;48.858;8.530;2023-05-27T09:14:30;8.90;;;5.03;;
45650;SDS011;31365;48.858;8.530;2023-05-27T09:17:04;10.10;;;4.15;;
45650;SDS011;31365;48.858;8.530;2023-05-27T09:19:34;8.93;;;4.20;;
45650;SDS011;31365;48.858;8.530;2023-05-27T09:22:02;10.52;;;4.82;;
45650;SDS011;31365;48.858;8.530;2023-05-27T09:24:32;8.93;;;4.28;;
45650;SDS011;31365;48.858;8.530;2023-05-27T09:27:01;7.65;;;3.78;;
45650;SDS011;31365;48.858;8.530;2023-05-27T09:29:31;10.35;;;4.70;;
45650;SDS011;31365;48.858;8.530;2023-05-27T09:32:01;7.65;;;4.05;;
45650;SDS011;31365;48.858;8.530;2023-05-27T09:34:30;8.18;;;4.07;;
45650;SDS011;31365;48.858;8.530;2023-05-27T09:36:58;9.07;;;4.30;;
45650;SDS011;31365;48.858;8.530;2023-05-27T09:39:27;9.70;;;4.85;;
45650;SDS011;31365;48.858;8.530;2023-05-27T09:41:56;10.43;;;4.85;;
45650;SDS011;31365;48.858;8.530;2023-05-27T09:44:26;10.00;;;4.57;;
45650;SDS011;31365;48.858;8.530;2023-05-27T09:46:57;8.30;;;4.43;;
45650;SDS011;31365;48.858;8.530;2023-05-27T09:49:28;9.98;;;4.28;;
45650;SDS011;31365;48.858;8.530;2023-05-27T09:52:00;13.65;;;5.65;;
45650;SDS011;31365;48.858;8.530;2023-05-27T09:54:30;8.70;;;4.30;;
45650;SDS011;31365;48.858;8.530;2023-05-27T09:57:00;9.73;;;4.95;;
45650;SDS011;31365;48.858;8.530;2023-05-27T09:59:31;8.63;;;4.50;;
45650;SDS011;31365;48.858;8.530;2023-05-27T10:02:00;9.32;;;4.18;;
45650;SDS011;31365;48.858;8.530;2023-05-27T10:04:30;10.77;;;4.45;;
45650;SDS011;31365;48.858;8.530;2023-05-27T10:06:58;10.95;;;4.53;;
45650;SDS011;31365;48.858;8.530;2023-05-27T10:09:29;9.50;;;4.32;;
45650;SDS011;31365;48.858;8.530;2023-05-27T10:11:57;10.70;;;4.60;;
45650;SDS011;31365;48.858;8.530;2023-05-27T10:14:28;9.02;;;4.53;;
45650;SDS011;31365;48.858;8.530;2023-05-27T10:16:57;9.55;;;5.25;;
45650;SDS011;31365;48.858;8.530;2023-05-27T10:19:25;12.65;;;4.63;;
45650;SDS011;31365;48.858;8.530;2023-05-27T10:21:54;11.05;;;4.85;;
45650;SDS011;31365;48.858;8.530;2023-05-27T10:24:30;7.10;;;3.97;;
45650;SDS011;31365;48.858;8.530;2023-05-27T10:27:00;10.45;;;4.22;;
45650;SDS011;31365;48.858;8.530;2023-05-27T10:29:36;9.40;;;4.60;;
45650;SDS011;31365;48.858;8.530;2023-05-27T10:32:05;11.00;;;4.18;;
45650;SDS011;31365;48.858;8.530;2023-05-27T10:34:34;6.75;;;4.65;;
45650;SDS011;31365;48.858;8.530;2023-05-27T10:37:03;11.00;;;4.97;;
45650;SDS011;31365;48.858;8.530;2023-05-27T10:39:33;10.15;;;5.03;;
45650;SDS011;31365;48.858;8.530;2023-05-27T10:42:02;10.02;;;4.47;;
45650;SDS011;31365;48.858;8.530;2023-05-27T10:44:32;8.00;;;4.97;;
45650;SDS011;31365;48.858;8.530;2023-05-27T10:47:03;9.18;;;5.95;;
45650;SDS011;31365;48.858;8.530;2023-05-27T10:49:38;9.38;;;4.53;;
45650;SDS011;31365;48.858;8.530;2023-05-27T10:52:08;11.45;;;5.00;;
45650;SDS011;31365;48.858;8.530;2023-05-27T10:54:39;7.82;;;4.07;;
45650;SDS011;31365;48.858;8.530;2023-05-27T10:57:10;9.57;;;4.50;;
45650;SDS011;31365;48.858;8.530;2023-05-27T10:59:39;6.88;;;4.25;;
45650;SDS011;31365;48.858;8.530;2023-05-27T11:02:16;8.45;;;4.25;;
45650;SDS011;31365;48.858;8.530;2023-05-27T11:04:46;7.68;;;3.95;;
45650;SDS011;31365;48.858;8.530;2023-05-27T11:07:17;8.73;;;4.60;;
45650;SDS011;31365;48.858;8.530;2023-05-27T11:09:46;11.15;;;4.18;;
45650;SDS011;31365;48.858;8.530;2023-05-27T11:12:17;7.72;;;4.50;;
45650;SDS011;31365;48.858;8.530;2023-05-27T11:14:47;7.18;;;3.92;;
45650;SDS011;31365;48.858;8.530;2023-05-27T11:17:19;8.73;;;5.28;;
45650;SDS011;31365;48.858;8.530;2023-05-27T11:19:49;8.07;;;4.60;;
45650;SDS011;31365;48.858;8.530;2023-05-27T11:22:18;5.78;;;4.47;;
45650;SDS011;31365;48.858;8.530;2023-05-27T11:24:54;10.32;;;4.68;;
45650;SDS011;31365;48.858;8.530;2023-05-27T11:27:24;14.30;;;5.00;;
45650;SDS011;31365;48.858;8.530;2023-05-27T11:29:59;6.43;;;4.63;;
45650;SDS011;31365;48.858;8.530;2023-05-27T11:32:37;8.80;;;4.53;;
45650;SDS011;31365;48.858;8.530;2023-05-27T11:35:13;11.30;;;4.40;;
45650;SDS011;31365;48.858;8.530;2023-05-27T11:37:44;13.85;;;4.53;;
45650;SDS011;31365;48.858;8.530;2023-05-27T11:40:14;7.68;;;4.47;;
45650;SDS011;31365;48.858;8.530;2023-05-27T11:52:50;10.13;;;4.97;;
45650;SDS011;31365;48.858;8.530;2023-05-27T11:55:20;9.80;;;4.57;;
45650;SDS011;31365;48.858;8.530;2023-05-27T11:57:49;8.45;;;4.72;;
45650;SDS011;31365;48.858;8.530;2023-05-27T12:00:19;8.63;;;4.60;;
45650;SDS011;31365;48.858;8.530;2023-05-27T12:02:48;7.50;;;4.60;;
45650;SDS011;31365;48.858;8.530;2023-05-27T12:05:17;7.03;;;4.57;;
45650;SDS011;31365;48.858;8.530;2023-05-27T12:07:48;7.53;;;4.10;;
45650;SDS011;31365;48.858;8.530;2023-05-27T12:10:16;10.93;;;4.07;;
45650;SDS011;31365;48.858;8.530;2023-05-27T12:12:44;9.93;;;4.80;;
45650;SDS011;31365;48.858;8.530;2023-05-27T12:15:12;8.30;;;4.28;;
45650;SDS011;31365;48.858;8.530;2023-05-27T12:17:41;6.60;;;4.47;;
45650;SDS011;31365;48.858;8.530;2023-05-27T12:20:12;8.23;;;4.13;;
45650;SDS011;31365;48.858;8.530;2023-05-27T12:22:41;8.30;;;4.20;;
45650;SDS011;31365;48.858;8.530;2023-05-27T12:25:10;7.50;;;4.03;;
45650;SDS011;31365;48.858;8.530;2023-05-27T12:27:38;7.57;;;4.13;;
45650;SDS011;31365;48.858;8.530;2023-05-27T12:30:07;9.43;;;4.25;;
45650;SDS011;31365;48.858;8.530;2023-05-27T12:32:36;6.35;;;4.50;;
45650;SDS011;31365;48.858;8.530;2023-05-27T12:35:05;9.32;;;4.93;;
45650;SDS011;31365;48.858;8.530;2023-05-27T12:37:35;6.18;;;4.40;;
45650;SDS011;31365;48.858;8.530;2023-05-27T12:40:03;8.35;;;4.78;;
45650;SDS011;31365;48.858;8.530;2023-05-27T12:42:35;7.93;;;4.75;;
45650;SDS011;31365;48.858;8.530;2023-05-27T12:45:04;9.57;;;4.50;;
45650;SDS011;31365;48.858;8.530;2023-05-27T12:47:34;7.28;;;4.53;;
45650;SDS011;31365;48.858;8.530;2023-05-27T12:50:02;6.68;;;4.30;;
45650;SDS011;31365;48.858;8.530;2023-05-27T12:52:31;7.57;;;4.68;;
45650;SDS011;31365;48.858;8.530;2023-05-27T12:55:01;9.18;;;4.68;;
45650;SDS011;31365;48.858;8.530;2023-05-27T12:57:30;5.30;;;3.70;;
45650;SDS011;31365;48.858;8.530;2023-05-27T12:59:58;8.35;;;4.53;;
45650;SDS011;31365;48.858;8.530;2023-05-27T13:02:26;6.65;;;4.50;;
45650;SDS011;31365;48.858;8.530;2023-05-27T13:04:55;7.88;;;4.00;;
45650;SDS011;31365;48.858;8.530;2023-05-27T13:07:23;5.35;;;4.20;;
45650;SDS011;31365;48.858;8.530;2023-05-27T13:09:51;7.72;;;4.32;;
45650;SDS011;31365;48.858;8.530;2023-05-27T13:12:21;6.18;;;4.00;;
45650;SDS011;31365;48.858;8.530;2023-05-27T13:14:49;8.02;;;4.35;;
45650;SDS011;31365;48.858;8.530;2023-05-27T13:17:18;5.97;;;4.20;;
45650;SDS011;31365;48.858;8.530;2023-05-27T13:19:47;6.75;;;4.35;;
45650;SDS011;31365;48.858;8.530;2023-05-27T13:22:15;7.05;;;4.40;;
45650;SDS011;31365;48.858;8.530;2023-05-27T13:24:45;6.50;;;4.30;;
45650;SDS011;31365;48.858;8.530;2023-05-27T13:27:13;6.57;;;4.33;;
45650;SDS011;31365;48.858;8.530;2023-05-27T13:31:09;6.82;;;4.32;;
45650;SDS011;31365;48.858;8.530;2023-05-27T13:33:37;8.30;;;4.40;;
45650;SDS011;31365;48.858;8.530;2023-05-27T13:36:05;7.78;;;4.35;;
45650;SDS011;31365;48.858;8.530;2023-05-27T13:38:34;10.13;;;4.30;;
45650;SDS011;31365;48.858;8.530;2023-05-27T13:41:02;7.97;;;3.78;;
45650;SDS011;31365;48.858;8.530;2023-05-27T13:43:30;7.63;;;4.18;;
45650;SDS011;31365;48.858;8.530;2023-05-27T13:45:58;7.30;;;4.20;;
45650;SDS011;31365;48.858;8.530;2023-05-27T13:48:28;6.50;;;4.07;;
45650;SDS011;31365;48.858;8.530;2023-05-27T13:50:57;5.82;;;3.95;;
45650;SDS011;31365;48.858;8.530;2023-05-27T13:53:25;5.20;;;4.00;;
45650;SDS011;31365;48.858;8.530;2023-05-27T13:55:53;5.32;;;4.70;;
45650;SDS011;31365;48.858;8.530;2023-05-27T13:58:21;6.63;;;4.63;;
45650;SDS011;31365;48.858;8.530;2023-05-27T14:00:49;8.00;;;4.55;;
45650;SDS011;31365;48.858;8.530;2023-05-27T14:03:18;7.05;;;4.22;;
45650;SDS011;31365;48.858;8.530;2023-05-27T14:05:48;7.88;;;4.25;;
45650;SDS011;31365;48.858;8.530;2023-05-27T14:08:18;5.50;;;3.92;;
45650;SDS011;31365;48.858;8.530;2023-05-27T14:10:46;5.05;;;4.00;;
45650;SDS011;31365;48.858;8.530;2023-05-27T14:13:15;6.20;;;3.90;;
45650;SDS011;31365;48.858;8.530;2023-05-27T14:15:43;7.90;;;4.30;;
45650;SDS011;31365;48.858;8.530;2023-05-27T14:18:11;6.95;;;3.85;;
45650;SDS011;31365;48.858;8.530;2023-05-27T14:20:39;5.97;;;3.80;;
45650;SDS011;31365;48.858;8.530;2023-05-27T14:23:08;6.38;;;4.47;;
45650;SDS011;31365;48.858;8.530;2023-05-27T14:25:38;5.35;;;3.78;;
45650;SDS011;31365;48.858;8.530;2023-05-27T14:28:06;6.32;;;3.92;;
45650;SDS011;31365;48.858;8.530;2023-05-27T14:30:35;6.10;;;3.85;;
45650;SDS011;31365;48.858;8.530;2023-05-27T14:33:03;5.95;;;3.88;;
45650;SDS011;31365;48.858;8.530;2023-05-27T14:35:34;4.45;;;3.95;;
45650;SDS011;31365;48.858;8.530;2023-05-27T14:38:02;7.20;;;3.97;;
45650;SDS011;31365;48.858;8.530;2023-05-27T14:40:33;6.63;;;4.03;;
45650;SDS011;31365;48.858;8.530;2023-05-27T14:43:01;6.18;;;4.40;;
45650;SDS011;31365;48.858;8.530;2023-05-27T14:45:30;4.68;;;3.63;;
45650;SDS011;31365;48.858;8.530;2023-05-27T14:47:59;7.32;;;4.25;;
45650;SDS011;31365;48.858;8.530;2023-05-27T14:50:27;6.57;;;4.15;;
45650;SDS011;31365;48.858;8.530;2023-05-27T14:52:56;5.00;;;3.90;;
45650;SDS011;31365;48.858;8.530;2023-05-27T14:55:24;5.40;;;4.10;;
45650;SDS011;31365;48.858;8.530;2023-05-27T14:57:54;4.70;;;3.67;;
45650;SDS011;31365;48.858;8.530;2023-05-27T15:00:22;6.05;;;4.07;;
45650;SDS011;31365;48.858;8.530;2023-05-27T15:02:51;8.65;;;4.35;;
45650;SDS011;31365;48.858;8.530;2023-05-27T15:05:19;8.32;;;4.63;;
45650;SDS011;31365;48.858;8.530;2023-05-27T15:07:48;4.75;;;4.15;;
45650;SDS011;31365;48.858;8.530;2023-05-27T15:10:16;6.10;;;4.40;;
45650;SDS011;31365;48.858;8.530;2023-05-27T15:12:45;6.18;;;4.13;;
45650;SDS011;31365;48.858;8.530;2023-05-27T15:15:17;4.70;;;3.90;;
45650;SDS011;31365;48.858;8.530;2023-05-27T15:17:47;5.63;;;4.22;;
45650;SDS011;31365;48.858;8.530;2023-05-27T15:20:16;9.50;;;4.60;;
45650;SDS011;31365;48.858;8.530;2023-05-27T15:22:46;6.40;;;4.15;;
45650;SDS011;31365;48.858;8.530;2023-05-27T15:25:14;5.90;;;4.43;;
45650;SDS011;31365;48.858;8.530;2023-05-27T15:27:43;6.72;;;4.07;;
45650;SDS011;31365;48.858;8.530;2023-05-27T15:30:12;8.52;;;4.63;;
45650;SDS011;31365;48.858;8.530;2023-05-27T15:32:42;6.50;;;4.63;;
45650;SDS011;31365;48.858;8.530;2023-05-27T15:35:11;6.47;;;4.15;;
45650;SDS011;31365;48.858;8.530;2023-05-27T15:37:39;6.28;;;4.25;;
45650;SDS011;31365;48.858;8.530;2023-05-27T15:40:08;5.95;;;4.38;;
45650;SDS011;31365;48.858;8.530;2023-05-27T15:42:37;8.23;;;4.45;;
45650;SDS011;31365;48.858;8.530;2023-05-27T15:45:06;7.20;;;4.50;;
45650;SDS011;31365;48.858;8.530;2023-05-27T15:47:35;6.10;;;4.22;;
45650;SDS011;31365;48.858;8.530;2023-05-27T15:50:05;8.25;;;4.45;;
45650;SDS011;31365;48.858;8.530;2023-05-27T15:52:34;6.75;;;3.83;;
45650;SDS011;31365;48.858;8.530;2023-05-27T15:55:03;6.88;;;4.65;;
45650;SDS011;31365;48.858;8.530;2023-05-27T15:57:31;7.10;;;4.25;;
45650;SDS011;31365;48.858;8.530;2023-05-27T16:00:01;8.48;;;4.13;;
45650;SDS011;31365;48.858;8.530;2023-05-27T16:02:36;6.28;;;4.10;;
45650;SDS011;31365;48.858;8.530;2023-05-27T16:05:07;6.82;;;4.40;;
45650;SDS011;31365;48.858;8.530;2023-05-27T16:07:39;4.10;;;3.67;;
45650;SDS011;31365;48.858;8.530;2023-05-27T16:10:07;4.57;;;3.20;;
45650;SDS011;31365;48.858;8.530;2023-05-27T16:12:36;7.30;;;4.03;;
45650;SDS011;31365;48.858;8.530;2023-05-27T16:15:05;7.25;;;3.42;;
45650;SDS011;31365;48.858;8.530;2023-05-27T16:17:35;7.90;;;3.38;;
45650;SDS011;31365;48.858;8.530;2023-05-27T16:20:04;6.18;;;3.60;;
45650;SDS011;31365;48.858;8.530;2023-05-27T16:22:35;10.40;;;4.15;;
45650;SDS011;31365;48.858;8.530;2023-05-27T16:25:03;5.10;;;3.53;;
45650;SDS011;31365;48.858;8.530;2023-05-27T16:27:33;5.35;;;3.20;;
45650;SDS011;31365;48.858;8.530;2023-05-27T16:30:01;6.28;;;3.45;;
45650;SDS011;31365;48.858;8.530;2023-05-27T16:32:30;5.03;;;3.55;;
45650;SDS011;31365;48.858;8.530;2023-05-27T16:34:58;6.55;;;3.65;;
45650;SDS011;31365;48.858;8.530;2023-05-27T16:37:28;3.72;;;2.80;;
45650;SDS011;31365;48.858;8.530;2023-05-27T16:39:56;5.65;;;3.47;;
45650;SDS011;31365;48.858;8.530;2023-05-27T16:42:24;4.68;;;3.22;;
45650;SDS011;31365;48.858;8.530;2023-05-27T16:44:52;7.90;;;4.07;;
45650;SDS011;31365;48.858;8.530;2023-05-27T16:47:21;7.13;;;3.72;;
45650;SDS011;31365;48.858;8.530;2023-05-27T16:49:49;7.13;;;3.60;;
45650;SDS011;31365;48.858;8.530;2023-05-27T16:52:17;5.50;;;3.00;;
45650;SDS011;31365;48.858;8.530;2023-05-27T16:54:47;6.32;;;2.90;;
45650;SDS011;31365;48.858;8.530;2023-05-27T16:57:15;5.55;;;4.20;;
45650;SDS011;31365;48.858;8.530;2023-05-27T16:59:43;6.07;;;3.22;;
45650;SDS011;31365;48.858;8.530;2023-05-27T17:02:12;9.95;;;3.80;;
45650;SDS011;31365;48.858;8.530;2023-05-27T17:04:40;3.70;;;2.60;;
45650;SDS011;31365;48.858;8.530;2023-05-27T17:07:08;6.75;;;3.13;;
45650;SDS011;31365;48.858;8.530;2023-05-27T17:09:36;6.15;;;3.50;;
45650;SDS011;31365;48.858;8.530;2023-05-27T17:12:06;5.70;;;2.92;;
45650;SDS011;31365;48.858;8.530;2023-05-27T17:14:36;5.45;;;3.22;;
45650;SDS011;31365;48.858;8.530;2023-05-27T17:17:04;6.60;;;3.10;;
45650;SDS011;31365;48.858;8.530;2023-05-27T17:19:32;6.90;;;3.10;;
45650;SDS011;31365;48.858;8.530;2023-05-27T17:22:00;7.10;;;3.58;;
45650;SDS011;31365;48.858;8.530;2023-05-27T17:24:29;5.60;;;3.00;;
45650;SDS011;31365;48.858;8.530;2023-05-27T17:26:57;6.80;;;2.88;;
45650;SDS011;31365;48.858;8.530;2023-05-27T17:29:27;5.10;;;3.00;;
45650;SDS011;31365;48.858;8.530;2023-05-27T17:31:56;5.45;;;4.03;;
45650;SDS011;31365;48.858;8.530;2023-05-27T17:34:24;6.07;;;2.92;;
45650;SDS011;31365;48.858;8.530;2023-05-27T17:36:52;4.93;;;2.72;;
45650;SDS011;31365;48.858;8.530;2023-05-27T17:39:20;4.43;;;2.75;;
45650;SDS011;31365;48.858;8.530;2023-05-27T17:41:49;6.22;;;3.33;;
45650;SDS011;31365;48.858;8.530;2023-05-27T17:44:17;6.10;;;3.20;;